sensor_id;sensor_type;location;lat;lon;timestamp;P1;durP1;ratioP1;P2;durP2;ratioP2
14923;SDS011;7554;43.600;1.480;2023-06-14T00:02:06;8.97;;;5.60;;
14923;SDS011;7554;43.600;1.480;2023-06-14T00:04:34;9.87;;;6.13;;
14923;SDS011;7554;43.600;1.480;2023-06-14T00:07:04;7.50;;;5.90;;
14923;SDS011;7554;43.600;1.480;2023-06-14T00:09:33;11.00;;;6.73;;
14923;SDS011;7554;43.600;1.480;2023-06-14T00:12:01;9.07;;;6.70;;
14923;SDS011;7554;43.600;1.480;2023-06-14T00:14:28;14.40;;;5.93;;
14923;SDS011;7554;43.600;1.480;2023-06-14T00:16:55;8.37;;;6.30;;
14923;SDS011;7554;43.600;1.480;2023-06-14T00:19:23;9.67;;;6.53;;
14923;SDS011;7554;43.600;1.480;2023-06-14T00:21:51;10.50;;;7.03;;
14923;SDS011;7554;43.600;1.480;2023-06-14T00:24:19;7.27;;;6.27;;
14923;SDS011;7554;43.600;1.480;2023-06-14T00:26:47;8.90;;;6.70;;
14923;SDS011;7554;43.600;1.480;2023-06-14T00:29:14;7.17;;;6.40;;
14923;SDS011;7554;43.600;1.480;2023-06-14T00:31:41;9.23;;;6.73;;
14923;SDS011;7554;43.600;1.480;2023-06-14T00:34:09;10.53;;;6.83;;
14923;SDS011;7554;43.600;1.480;2023-06-14T00:36:36;8.77;;;6.87;;
14923;SDS011;7554;43.600;1.480;2023-06-14T00:39:03;8.77;;;6.70;;
14923;SDS011;7554;43.600;1.480;2023-06-14T00:41:32;10.30;;;7.07;;
14923;SDS011;7554;43.600;1.480;2023-06-14T00:44:00;10.67;;;7.20;;
14923;SDS011;7554;43.600;1.480;2023-06-14T00:46:28;8.33;;;7.00;;
14923;SDS011;7554;43.600;1.480;2023-06-14T00:48:56;10.70;;;7.47;;
14923;SDS011;7554;43.600;1.480;2023-06-14T00:51:27;11.47;;;8.10;;
14923;SDS011;7554;43.600;1.480;2023-06-14T00:53:54;10.27;;;7.40;;
14923;SDS011;7554;43.600;1.480;2023-06-14T00:56:22;10.67;;;8.37;;
14923;SDS011;7554;43.600;1.480;2023-06-14T00:58:51;14.23;;;8.97;;
14923;SDS011;7554;43.600;1.480;2023-06-14T01:01:18;12.90;;;8.73;;
14923;SDS011;7554;43.600;1.480;2023-06-14T01:03:46;15.50;;;9.00;;
14923;SDS011;7554;43.600;1.480;2023-06-14T01:06:15;10.07;;;8.80;;
14923;SDS011;7554;43.600;1.480;2023-06-14T01:08:57;16.97;;;9.43;;
14923;SDS011;7554;43.600;1.480;2023-06-14T01:11:35;17.00;;;10.43;;
14923;SDS011;7554;43.600;1.480;2023-06-14T01:14:11;18.10;;;11.00;;
14923;SDS011;7554;43.600;1.480;2023-06-14T01:16:41;17.80;;;11.50;;
14923;SDS011;7554;43.600;1.480;2023-06-14T01:19:10;13.50;;;10.13;;
14923;SDS011;7554;43.600;1.480;2023-06-14T01:21:39;18.93;;;11.90;;
14923;SDS011;7554;43.600;1.480;2023-06-14T01:24:09;23.20;;;13.37;;
14923;SDS011;7554;43.600;1.480;2023-06-14T01:26:37;22.57;;;14.27;;
14923;SDS011;7554;43.600;1.480;2023-06-14T01:29:11;38.20;;;14.97;;
14923;SDS011;7554;43.600;1.480;2023-06-14T01:31:42;23.73;;;14.20;;
14923;SDS011;7554;43.600;1.480;2023-06-14T01:34:10;19.97;;;13.97;;
14923;SDS011;7554;43.600;1.480;2023-06-14T01:36:38;21.93;;;13.73;;
14923;SDS011;7554;43.600;1.480;2023-06-14T01:39:10;21.53;;;15.23;;
14923;SDS011;7554;43.600;1.480;2023-06-14T01:41:40;28.27;;;16.13;;
14923;SDS011;7554;43.600;1.480;2023-06-14T01:44:09;22.40;;;15.33;;
14923;SDS011;7554;43.600;1.480;2023-06-14T01:46:38;28.60;;;17.07;;
14923;SDS011;7554;43.600;1.480;2023-06-14T01:49:07;20.90;;;15.37;;
14923;SDS011;7554;43.600;1.480;2023-06-14T01:51:34;26.23;;;16.17;;
14923;SDS011;7554;43.600;1.480;2023-06-14T01:54:02;19.90;;;14.83;;
14923;SDS011;7554;43.600;1.480;2023-06-14T01:56:31;27.00;;;17.60;;
14923;SDS011;7554;43.600;1.480;2023-06-14T01:58:58;24.43;;;16.90;;
14923;SDS011;7554;43.600;1.480;2023-06-14T02:01:26;25.20;;;16.97;;
14923;SDS011;7554;43.600;1.480;2023-06-14T02:03:53;26.23;;;16.57;;
14923;SDS011;7554;43.600;1.480;2023-06-14T02:06:21;29.07;;;17.53;;
14923;SDS011;7554;43.600;1.480;2023-06-14T02:08:48;25.43;;;15.90;;
14923;SDS011;7554;43.600;1.480;2023-06-14T02:11:15;24.87;;;16.10;;
14923;SDS011;7554;43.600;1.480;2023-06-14T02:13:44;29.37;;;17.40;;
14923;SDS011;7554;43.600;1.480;2023-06-14T02:16:11;24.07;;;16.97;;
14923;SDS011;7554;43.600;1.480;2023-06-14T02:18:39;26.73;;;16.17;;
14923;SDS011;7554;43.600;1.480;2023-06-14T02:21:07;28.50;;;19.00;;
14923;SDS011;7554;43.600;1.480;2023-06-14T02:23:34;28.10;;;16.77;;
14923;SDS011;7554;43.600;1.480;2023-06-14T02:26:01;30.03;;;17.67;;
14923;SDS011;7554;43.600;1.480;2023-06-14T02:28:29;30.17;;;16.80;;
14923;SDS011;7554;43.600;1.480;2023-06-14T02:30:58;23.57;;;16.27;;
14923;SDS011;7554;43.600;1.480;2023-06-14T02:33:25;24.63;;;15.77;;
14923;SDS011;7554;43.600;1.480;2023-06-14T02:35:53;26.50;;;17.13;;
14923;SDS011;7554;43.600;1.480;2023-06-14T02:38:21;24.90;;;16.57;;
14923;SDS011;7554;43.600;1.480;2023-06-14T02:40:48;24.07;;;16.90;;
14923;SDS011;7554;43.600;1.480;2023-06-14T02:43:16;23.87;;;16.43;;
14923;SDS011;7554;43.600;1.480;2023-06-14T02:45:43;26.27;;;16.73;;
14923;SDS011;7554;43.600;1.480;2023-06-14T02:48:12;25.20;;;15.93;;
14923;SDS011;7554;43.600;1.480;2023-06-14T02:50:39;26.23;;;16.90;;
14923;SDS011;7554;43.600;1.480;2023-06-14T02:53:06;28.13;;;16.93;;
14923;SDS011;7554;43.600;1.480;2023-06-14T02:55:34;26.40;;;17.40;;
14923;SDS011;7554;43.600;1.480;2023-06-14T02:58:04;29.90;;;18.40;;
14923;SDS011;7554;43.600;1.480;2023-06-14T03:00:32;22.47;;;16.47;;
14923;SDS011;7554;43.600;1.480;2023-06-14T03:03:00;27.10;;;17.50;;
14923;SDS011;7554;43.600;1.480;2023-06-14T03:05:31;25.97;;;16.93;;
14923;SDS011;7554;43.600;1.480;2023-06-14T03:07:58;28.93;;;17.17;;
14923;SDS011;7554;43.600;1.480;2023-06-14T03:10:26;23.37;;;15.53;;
14923;SDS011;7554;43.600;1.480;2023-06-14T03:12:54;24.23;;;15.27;;
14923;SDS011;7554;43.600;1.480;2023-06-14T03:15:21;25.87;;;15.80;;
14923;SDS011;7554;43.600;1.480;2023-06-14T03:17:50;22.17;;;14.63;;
14923;SDS011;7554;43.600;1.480;2023-06-14T03:20:18;23.17;;;13.87;;
14923;SDS011;7554;43.600;1.480;2023-06-14T03:22:47;17.70;;;13.40;;
14923;SDS011;7554;43.600;1.480;2023-06-14T03:25:15;29.53;;;14.43;;
14923;SDS011;7554;43.600;1.480;2023-06-14T03:27:44;24.33;;;14.13;;
14923;SDS011;7554;43.600;1.480;2023-06-14T03:30:11;18.57;;;13.63;;
14923;SDS011;7554;43.600;1.480;2023-06-14T03:32:39;20.13;;;13.13;;
14923;SDS011;7554;43.600;1.480;2023-06-14T03:35:06;21.63;;;14.30;;
14923;SDS011;7554;43.600;1.480;2023-06-14T03:37:35;20.77;;;14.60;;
14923;SDS011;7554;43.600;1.480;2023-06-14T03:40:04;18.93;;;13.97;;
14923;SDS011;7554;43.600;1.480;2023-06-14T03:42:32;24.03;;;15.10;;
14923;SDS011;7554;43.600;1.480;2023-06-14T03:45:00;27.13;;;15.37;;
14923;SDS011;7554;43.600;1.480;2023-06-14T03:47:27;25.97;;;16.17;;
14923;SDS011;7554;43.600;1.480;2023-06-14T03:49:54;24.50;;;15.20;;
14923;SDS011;7554;43.600;1.480;2023-06-14T03:52:22;24.90;;;15.43;;
14923;SDS011;7554;43.600;1.480;2023-06-14T03:54:50;23.53;;;15.33;;
14923;SDS011;7554;43.600;1.480;2023-06-14T03:57:19;22.57;;;14.97;;
14923;SDS011;7554;43.600;1.480;2023-06-14T03:59:47;25.97;;;16.57;;
14923;SDS011;7554;43.600;1.480;2023-06-14T04:02:14;24.07;;;15.50;;
14923;SDS011;7554;43.600;1.480;2023-06-14T04:04:43;26.73;;;14.50;;
14923;SDS011;7554;43.600;1.480;2023-06-14T04:07:10;29.43;;;17.57;;
14923;SDS011;7554;43.600;1.480;2023-06-14T04:09:37;23.03;;;15.43;;
14923;SDS011;7554;43.600;1.480;2023-06-14T04:12:05;27.50;;;16.83;;
14923;SDS011;7554;43.600;1.480;2023-06-14T04:14:35;30.00;;;17.13;;
14923;SDS011;7554;43.600;1.480;2023-06-14T04:17:03;26.47;;;17.87;;
14923;SDS011;7554;43.600;1.480;2023-06-14T04:19:31;20.97;;;16.00;;
14923;SDS011;7554;43.600;1.480;2023-06-14T04:21:58;25.10;;;17.03;;
14923;SDS011;7554;43.600;1.480;2023-06-14T04:24:26;25.77;;;17.17;;
14923;SDS011;7554;43.600;1.480;2023-06-14T04:26:57;35.53;;;18.53;;
14923;SDS011;7554;43.600;1.480;2023-06-14T04:29:26;38.17;;;21.77;;
14923;SDS011;7554;43.600;1.480;2023-06-14T04:31:56;31.00;;;20.10;;
14923;SDS011;7554;43.600;1.480;2023-06-14T04:34:25;38.63;;;20.47;;
14923;SDS011;7554;43.600;1.480;2023-06-14T04:36:54;36.27;;;19.90;;
14923;SDS011;7554;43.600;1.480;2023-06-14T04:39:23;34.37;;;20.33;;
14923;SDS011;7554;43.600;1.480;2023-06-14T04:41:51;43.20;;;22.00;;
14923;SDS011;7554;43.600;1.480;2023-06-14T04:44:22;34.27;;;20.90;;
14923;SDS011;7554;43.600;1.480;2023-06-14T04:46:56;36.23;;;21.10;;
14923;SDS011;7554;43.600;1.480;2023-06-14T04:49:24;37.83;;;23.03;;
14923;SDS011;7554;43.600;1.480;2023-06-14T04:51:52;42.37;;;23.33;;
14923;SDS011;7554;43.600;1.480;2023-06-14T04:54:24;42.70;;;23.73;;
14923;SDS011;7554;43.600;1.480;2023-06-14T04:56:51;46.37;;;24.43;;
14923;SDS011;7554;43.600;1.480;2023-06-14T04:59:20;38.10;;;23.20;;
14923;SDS011;7554;43.600;1.480;2023-06-14T05:01:48;39.53;;;22.20;;
14923;SDS011;7554;43.600;1.480;2023-06-14T05:04:17;40.00;;;23.70;;
14923;SDS011;7554;43.600;1.480;2023-06-14T05:06:45;46.90;;;24.33;;
14923;SDS011;7554;43.600;1.480;2023-06-14T05:09:13;49.93;;;26.33;;
14923;SDS011;7554;43.600;1.480;2023-06-14T05:11:41;43.17;;;24.43;;
14923;SDS011;7554;43.600;1.480;2023-06-14T05:14:09;41.43;;;24.07;;
14923;SDS011;7554;43.600;1.480;2023-06-14T05:16:36;50.97;;;26.10;;
14923;SDS011;7554;43.600;1.480;2023-06-14T05:19:04;46.07;;;24.60;;
14923;SDS011;7554;43.600;1.480;2023-06-14T05:21:33;50.87;;;25.97;;
14923;SDS011;7554;43.600;1.480;2023-06-14T05:24:00;47.03;;;25.87;;
14923;SDS011;7554;43.600;1.480;2023-06-14T05:26:28;47.67;;;25.80;;
14923;SDS011;7554;43.600;1.480;2023-06-14T05:28:55;46.27;;;25.27;;
14923;SDS011;7554;43.600;1.480;2023-06-14T05:31:22;52.60;;;26.70;;
14923;SDS011;7554;43.600;1.480;2023-06-14T05:33:51;55.87;;;27.00;;
14923;SDS011;7554;43.600;1.480;2023-06-14T05:36:18;51.23;;;26.83;;
14923;SDS011;7554;43.600;1.480;2023-06-14T05:38:47;49.97;;;26.40;;
14923;SDS011;7554;43.600;1.480;2023-06-14T05:41:15;50.53;;;24.83;;
14923;SDS011;7554;43.600;1.480;2023-06-14T05:43:43;43.40;;;25.43;;
14923;SDS011;7554;43.600;1.480;2023-06-14T05:46:11;47.33;;;25.93;;
14923;SDS011;7554;43.600;1.480;2023-06-14T05:48:38;45.33;;;25.93;;
14923;SDS011;7554;43.600;1.480;2023-06-14T05:51:05;38.73;;;23.67;;
14923;SDS011;7554;43.600;1.480;2023-06-14T05:53:34;46.90;;;24.67;;
14923;SDS011;7554;43.600;1.480;2023-06-14T05:56:03;46.43;;;26.80;;
14923;SDS011;7554;43.600;1.480;2023-06-14T05:58:30;45.17;;;24.80;;
14923;SDS011;7554;43.600;1.480;2023-06-14T06:00:58;42.87;;;24.53;;
14923;SDS011;7554;43.600;1.480;2023-06-14T06:03:26;42.07;;;25.87;;
14923;SDS011;7554;43.600;1.480;2023-06-14T06:05:54;42.23;;;24.93;;
14923;SDS011;7554;43.600;1.480;2023-06-14T06:08:21;42.07;;;24.17;;
14923;SDS011;7554;43.600;1.480;2023-06-14T06:10:49;41.83;;;25.00;;
14923;SDS011;7554;43.600;1.480;2023-06-14T06:13:18;44.93;;;24.63;;
14923;SDS011;7554;43.600;1.480;2023-06-14T06:15:45;43.97;;;25.40;;
14923;SDS011;7554;43.600;1.480;2023-06-14T06:18:12;41.17;;;24.83;;
14923;SDS011;7554;43.600;1.480;2023-06-14T06:20:40;46.10;;;23.83;;
14923;SDS011;7554;43.600;1.480;2023-06-14T06:23:07;40.13;;;22.80;;
14923;SDS011;7554;43.600;1.480;2023-06-14T06:25:35;36.67;;;22.23;;
14923;SDS011;7554;43.600;1.480;2023-06-14T06:28:02;35.73;;;23.17;;
14923;SDS011;7554;43.600;1.480;2023-06-14T06:30:31;32.80;;;21.53;;
14923;SDS011;7554;43.600;1.480;2023-06-14T06:32:59;38.07;;;23.23;;
14923;SDS011;7554;43.600;1.480;2023-06-14T06:35:26;32.03;;;21.83;;
14923;SDS011;7554;43.600;1.480;2023-06-14T06:37:55;32.07;;;20.47;;
14923;SDS011;7554;43.600;1.480;2023-06-14T06:40:22;28.47;;;19.50;;
14923;SDS011;7554;43.600;1.480;2023-06-14T06:42:49;32.13;;;19.57;;
14923;SDS011;7554;43.600;1.480;2023-06-14T06:45:17;28.20;;;20.10;;
14923;SDS011;7554;43.600;1.480;2023-06-14T06:47:47;32.57;;;18.70;;
14923;SDS011;7554;43.600;1.480;2023-06-14T06:50:14;25.77;;;19.53;;
14923;SDS011;7554;43.600;1.480;2023-06-14T06:52:42;30.00;;;19.77;;
14923;SDS011;7554;43.600;1.480;2023-06-14T06:55:10;23.97;;;18.37;;
14923;SDS011;7554;43.600;1.480;2023-06-14T06:57:38;25.40;;;17.80;;
14923;SDS011;7554;43.600;1.480;2023-06-14T07:00:05;26.60;;;18.20;;
14923;SDS011;7554;43.600;1.480;2023-06-14T07:02:35;24.70;;;18.27;;
14923;SDS011;7554;43.600;1.480;2023-06-14T07:05:04;30.23;;;18.27;;
14923;SDS011;7554;43.600;1.480;2023-06-14T07:07:32;23.90;;;16.83;;
14923;SDS011;7554;43.600;1.480;2023-06-14T07:09:59;26.27;;;17.70;;
14923;SDS011;7554;43.600;1.480;2023-06-14T07:12:29;28.23;;;17.40;;
14923;SDS011;7554;43.600;1.480;2023-06-14T07:14:58;25.93;;;17.77;;
14923;SDS011;7554;43.600;1.480;2023-06-14T07:17:26;27.63;;;17.80;;
14923;SDS011;7554;43.600;1.480;2023-06-14T07:19:53;25.43;;;17.20;;
14923;SDS011;7554;43.600;1.480;2023-06-14T07:22:24;24.13;;;17.37;;
14923;SDS011;7554;43.600;1.480;2023-06-14T07:24:51;25.53;;;18.80;;
14923;SDS011;7554;43.600;1.480;2023-06-14T07:27:18;24.40;;;17.77;;
14923;SDS011;7554;43.600;1.480;2023-06-14T07:29:46;33.07;;;19.23;;
14923;SDS011;7554;43.600;1.480;2023-06-14T07:32:13;24.00;;;17.10;;
14923;SDS011;7554;43.600;1.480;2023-06-14T07:34:40;28.27;;;18.07;;
14923;SDS011;7554;43.600;1.480;2023-06-14T07:37:08;26.73;;;18.03;;
14923;SDS011;7554;43.600;1.480;2023-06-14T07:39:36;31.90;;;18.60;;
14923;SDS011;7554;43.600;1.480;2023-06-14T07:42:04;30.63;;;18.53;;
14923;SDS011;7554;43.600;1.480;2023-06-14T07:44:32;28.80;;;18.80;;
14923;SDS011;7554;43.600;1.480;2023-06-14T07:47:00;31.03;;;18.90;;
14923;SDS011;7554;43.600;1.480;2023-06-14T07:49:27;30.77;;;18.93;;
14923;SDS011;7554;43.600;1.480;2023-06-14T07:51:56;31.03;;;19.07;;
14923;SDS011;7554;43.600;1.480;2023-06-14T07:54:25;27.97;;;17.17;;
14923;SDS011;7554;43.600;1.480;2023-06-14T07:56:56;24.40;;;17.27;;
14923;SDS011;7554;43.600;1.480;2023-06-14T07:59:26;25.90;;;17.90;;
14923;SDS011;7554;43.600;1.480;2023-06-14T08:01:53;29.93;;;20.80;;
14923;SDS011;7554;43.600;1.480;2023-06-14T08:04:20;29.40;;;18.13;;
14923;SDS011;7554;43.600;1.480;2023-06-14T08:06:49;24.87;;;16.63;;
14923;SDS011;7554;43.600;1.480;2023-06-14T08:09:16;23.93;;;15.27;;
14923;SDS011;7554;43.600;1.480;2023-06-14T08:11:43;25.23;;;16.53;;
14923;SDS011;7554;43.600;1.480;2023-06-14T08:14:12;25.17;;;16.00;;
14923;SDS011;7554;43.600;1.480;2023-06-14T08:16:39;20.83;;;15.60;;
14923;SDS011;7554;43.600;1.480;2023-06-14T08:19:07;18.03;;;15.17;;
14923;SDS011;7554;43.600;1.480;2023-06-14T08:21:34;23.33;;;14.80;;
14923;SDS011;7554;43.600;1.480;2023-06-14T08:24:01;18.17;;;14.20;;
14923;SDS011;7554;43.600;1.480;2023-06-14T08:26:29;20.73;;;13.00;;
14923;SDS011;7554;43.600;1.480;2023-06-14T08:28:57;15.00;;;12.80;;
14923;SDS011;7554;43.600;1.480;2023-06-14T08:31:26;18.50;;;12.97;;
14923;SDS011;7554;43.600;1.480;2023-06-14T08:33:53;18.30;;;13.00;;
14923;SDS011;7554;43.600;1.480;2023-06-14T08:36:21;15.73;;;12.07;;
14923;SDS011;7554;43.600;1.480;2023-06-14T08:38:48;22.17;;;12.93;;
14923;SDS011;7554;43.600;1.480;2023-06-14T08:41:20;25.90;;;13.13;;
14923;SDS011;7554;43.600;1.480;2023-06-14T08:43:49;21.77;;;14.17;;
14923;SDS011;7554;43.600;1.480;2023-06-14T08:46:19;17.20;;;12.17;;
14923;SDS011;7554;43.600;1.480;2023-06-14T08:48:49;16.10;;;12.23;;
14923;SDS011;7554;43.600;1.480;2023-06-14T08:51:18;19.00;;;12.80;;
14923;SDS011;7554;43.600;1.480;2023-06-14T08:53:48;17.43;;;12.67;;
14923;SDS011;7554;43.600;1.480;2023-06-14T08:56:22;17.37;;;12.37;;
14923;SDS011;7554;43.600;1.480;2023-06-14T08:58:52;19.57;;;11.20;;
14923;SDS011;7554;43.600;1.480;2023-06-14T09:01:20;18.57;;;11.40;;
14923;SDS011;7554;43.600;1.480;2023-06-14T09:03:49;12.37;;;10.47;;
14923;SDS011;7554;43.600;1.480;2023-06-14T09:06:17;19.37;;;12.70;;
14923;SDS011;7554;43.600;1.480;2023-06-14T09:08:48;19.60;;;10.33;;
14923;SDS011;7554;43.600;1.480;2023-06-14T09:11:16;22.80;;;13.10;;
14923;SDS011;7554;43.600;1.480;2023-06-14T09:13:45;22.23;;;10.53;;
14923;SDS011;7554;43.600;1.480;2023-06-14T09:16:12;12.37;;;9.20;;
14923;SDS011;7554;43.600;1.480;2023-06-14T09:18:40;13.67;;;10.57;;
14923;SDS011;7554;43.600;1.480;2023-06-14T09:21:14;16.00;;;9.47;;
14923;SDS011;7554;43.600;1.480;2023-06-14T09:23:43;19.60;;;10.07;;
14923;SDS011;7554;43.600;1.480;2023-06-14T09:26:11;15.97;;;10.17;;
14923;SDS011;7554;43.600;1.480;2023-06-14T09:28:43;15.67;;;9.70;;
14923;SDS011;7554;43.600;1.480;2023-06-14T09:31:11;13.13;;;9.70;;
14923;SDS011;7554;43.600;1.480;2023-06-14T09:33:38;12.40;;;8.57;;
14923;SDS011;7554;43.600;1.480;2023-06-14T09:36:09;14.83;;;8.43;;
14923;SDS011;7554;43.600;1.480;2023-06-14T09:38:41;13.43;;;8.43;;
14923;SDS011;7554;43.600;1.480;2023-06-14T09:41:08;10.50;;;8.23;;
14923;SDS011;7554;43.600;1.480;2023-06-14T09:43:35;10.50;;;8.20;;
14923;SDS011;7554;43.600;1.480;2023-06-14T09:46:04;14.67;;;9.23;;
14923;SDS011;7554;43.600;1.480;2023-06-14T09:48:32;12.70;;;8.17;;
14923;SDS011;7554;43.600;1.480;2023-06-14T09:51:00;16.33;;;7.93;;
14923;SDS011;7554;43.600;1.480;2023-06-14T09:53:29;15.47;;;8.93;;
14923;SDS011;7554;43.600;1.480;2023-06-14T09:55:59;16.17;;;8.43;;
14923;SDS011;7554;43.600;1.480;2023-06-14T09:58:27;14.30;;;8.43;;
14923;SDS011;7554;43.600;1.480;2023-06-14T10:00:57;18.57;;;8.30;;
14923;SDS011;7554;43.600;1.480;2023-06-14T10:03:27;13.73;;;8.60;;
14923;SDS011;7554;43.600;1.480;2023-06-14T10:05:57;17.63;;;8.27;;
14923;SDS011;7554;43.600;1.480;2023-06-14T10:08:30;12.87;;;8.23;;
14923;SDS011;7554;43.600;1.480;2023-06-14T10:11:01;12.37;;;8.23;;
14923;SDS011;7554;43.600;1.480;2023-06-14T10:13:28;11.67;;;8.00;;
14923;SDS011;7554;43.600;1.480;2023-06-14T10:16:00;13.17;;;7.90;;
14923;SDS011;7554;43.600;1.480;2023-06-14T10:18:36;11.43;;;8.13;;
14923;SDS011;7554;43.600;1.480;2023-06-14T10:21:13;14.70;;;8.00;;
14923;SDS011;7554;43.600;1.480;2023-06-14T10:23:48;15.93;;;8.00;;
14923;SDS011;7554;43.600;1.480;2023-06-14T10:26:21;11.10;;;7.57;;
14923;SDS011;7554;43.600;1.480;2023-06-14T10:28:56;12.17;;;8.10;;
14923;SDS011;7554;43.600;1.480;2023-06-14T10:31:42;11.20;;;7.93;;
14923;SDS011;7554;43.600;1.480;2023-06-14T10:34:10;11.17;;;7.90;;
14923;SDS011;7554;43.600;1.480;2023-06-14T10:36:38;12.47;;;8.20;;
14923;SDS011;7554;43.600;1.480;2023-06-14T10:39:11;12.00;;;8.37;;
14923;SDS011;7554;43.600;1.480;2023-06-14T10:41:50;14.87;;;8.37;;
14923;SDS011;7554;43.600;1.480;2023-06-14T10:44:31;12.43;;;8.47;;
14923;SDS011;7554;43.600;1.480;2023-06-14T10:47:06;12.23;;;7.93;;
14923;SDS011;7554;43.600;1.480;2023-06-14T10:49:41;14.37;;;8.20;;
14923;SDS011;7554;43.600;1.480;2023-06-14T10:52:10;11.70;;;7.50;;
14923;SDS011;7554;43.600;1.480;2023-06-14T10:54:56;13.67;;;7.67;;
14923;SDS011;7554;43.600;1.480;2023-06-14T10:57:30;10.90;;;7.07;;
14923;SDS011;7554;43.600;1.480;2023-06-14T10:59:58;15.13;;;7.70;;
14923;SDS011;7554;43.600;1.480;2023-06-14T11:05:50;12.03;;;7.13;;
14923;SDS011;7554;43.600;1.480;2023-06-14T11:08:27;10.80;;;7.27;;
14923;SDS011;7554;43.600;1.480;2023-06-14T11:11:07;12.70;;;7.53;;
14923;SDS011;7554;43.600;1.480;2023-06-14T11:13:38;10.70;;;7.30;;
14923;SDS011;7554;43.600;1.480;2023-06-14T11:16:10;9.33;;;7.33;;
14923;SDS011;7554;43.600;1.480;2023-06-14T11:18:38;10.10;;;6.77;;
14923;SDS011;7554;43.600;1.480;2023-06-14T11:21:05;12.27;;;8.00;;
14923;SDS011;7554;43.600;1.480;2023-06-14T11:23:34;11.70;;;7.20;;
14923;SDS011;7554;43.600;1.480;2023-06-14T11:26:01;11.60;;;7.27;;
14923;SDS011;7554;43.600;1.480;2023-06-14T11:28:38;10.03;;;7.37;;
14923;SDS011;7554;43.600;1.480;2023-06-14T11:31:06;10.77;;;7.70;;
14923;SDS011;7554;43.600;1.480;2023-06-14T11:33:34;12.30;;;7.43;;
14923;SDS011;7554;43.600;1.480;2023-06-14T11:36:02;12.73;;;8.10;;
14923;SDS011;7554;43.600;1.480;2023-06-14T11:38:34;9.83;;;7.23;;
14923;SDS011;7554;43.600;1.480;2023-06-14T11:41:03;11.13;;;7.90;;
14923;SDS011;7554;43.600;1.480;2023-06-14T11:43:31;13.77;;;8.30;;
14923;SDS011;7554;43.600;1.480;2023-06-14T11:46:01;10.53;;;7.43;;
14923;SDS011;7554;43.600;1.480;2023-06-14T11:48:37;12.73;;;6.90;;
14923;SDS011;7554;43.600;1.480;2023-06-14T11:51:05;11.73;;;6.90;;
14923;SDS011;7554;43.600;1.480;2023-06-14T11:53:33;10.70;;;7.03;;
14923;SDS011;7554;43.600;1.480;2023-06-14T11:56:01;9.80;;;6.73;;
14923;SDS011;7554;43.600;1.480;2023-06-14T11:58:29;11.23;;;6.30;;
14923;SDS011;7554;43.600;1.480;2023-06-14T12:00:56;13.00;;;7.10;;
14923;SDS011;7554;43.600;1.480;2023-06-14T12:03:25;13.03;;;6.97;;
14923;SDS011;7554;43.600;1.480;2023-06-14T12:06:03;9.17;;;6.83;;
14923;SDS011;7554;43.600;1.480;2023-06-14T12:08:33;11.37;;;7.00;;
14923;SDS011;7554;43.600;1.480;2023-06-14T12:11:04;9.03;;;7.03;;
14923;SDS011;7554;43.600;1.480;2023-06-14T12:13:33;14.37;;;6.97;;
14923;SDS011;7554;43.600;1.480;2023-06-14T12:16:04;14.37;;;7.27;;
14923;SDS011;7554;43.600;1.480;2023-06-14T12:18:33;10.37;;;7.07;;
14923;SDS011;7554;43.600;1.480;2023-06-14T12:21:01;8.63;;;6.33;;
14923;SDS011;7554;43.600;1.480;2023-06-14T12:23:44;11.93;;;6.90;;
14923;SDS011;7554;43.600;1.480;2023-06-14T12:26:13;8.77;;;6.33;;
14923;SDS011;7554;43.600;1.480;2023-06-14T12:28:41;9.10;;;6.53;;
14923;SDS011;7554;43.600;1.480;2023-06-14T12:31:10;15.63;;;7.20;;
14923;SDS011;7554;43.600;1.480;2023-06-14T12:33:40;10.33;;;6.93;;
14923;SDS011;7554;43.600;1.480;2023-06-14T12:36:08;12.60;;;7.20;;
14923;SDS011;7554;43.600;1.480;2023-06-14T12:38:36;13.50;;;7.43;;
14923;SDS011;7554;43.600;1.480;2023-06-14T12:41:06;8.23;;;6.70;;
14923;SDS011;7554;43.600;1.480;2023-06-14T12:43:34;12.07;;;6.67;;
14923;SDS011;7554;43.600;1.480;2023-06-14T12:46:01;8.57;;;6.57;;
14923;SDS011;7554;43.600;1.480;2023-06-14T12:48:28;11.53;;;7.10;;
14923;SDS011;7554;43.600;1.480;2023-06-14T12:50:57;9.30;;;6.30;;
14923;SDS011;7554;43.600;1.480;2023-06-14T12:53:25;9.30;;;6.70;;
14923;SDS011;7554;43.600;1.480;2023-06-14T12:55:52;9.43;;;6.83;;
14923;SDS011;7554;43.600;1.480;2023-06-14T12:58:19;9.93;;;6.73;;
14923;SDS011;7554;43.600;1.480;2023-06-14T13:00:48;13.40;;;7.00;;
14923;SDS011;7554;43.600;1.480;2023-06-14T13:03:16;9.53;;;6.23;;
14923;SDS011;7554;43.600;1.480;2023-06-14T13:05:43;7.53;;;6.27;;
14923;SDS011;7554;43.600;1.480;2023-06-14T13:08:12;8.30;;;6.13;;
14923;SDS011;7554;43.600;1.480;2023-06-14T13:10:40;11.13;;;6.80;;
14923;SDS011;7554;43.600;1.480;2023-06-14T13:13:07;10.67;;;6.90;;
14923;SDS011;7554;43.600;1.480;2023-06-14T13:15:34;12.80;;;6.80;;
14923;SDS011;7554;43.600;1.480;2023-06-14T13:18:02;11.10;;;6.50;;
14923;SDS011;7554;43.600;1.480;2023-06-14T13:20:29;10.27;;;6.80;;
14923;SDS011;7554;43.600;1.480;2023-06-14T13:22:56;8.70;;;6.43;;
14923;SDS011;7554;43.600;1.480;2023-06-14T13:25:25;10.67;;;6.20;;
14923;SDS011;7554;43.600;1.480;2023-06-14T13:27:53;12.00;;;6.33;;
14923;SDS011;7554;43.600;1.480;2023-06-14T13:30:20;10.40;;;6.30;;
14923;SDS011;7554;43.600;1.480;2023-06-14T13:32:47;8.60;;;6.70;;
14923;SDS011;7554;43.600;1.480;2023-06-14T13:35:17;10.67;;;7.17;;
14923;SDS011;7554;43.600;1.480;2023-06-14T13:37:44;7.67;;;6.80;;
14923;SDS011;7554;43.600;1.480;2023-06-14T13:40:12;10.53;;;6.53;;
14923;SDS011;7554;43.600;1.480;2023-06-14T13:42:41;10.57;;;6.63;;
14923;SDS011;7554;43.600;1.480;2023-06-14T13:45:09;8.83;;;6.20;;
14923;SDS011;7554;43.600;1.480;2023-06-14T13:47:38;12.43;;;6.90;;
14923;SDS011;7554;43.600;1.480;2023-06-14T13:50:05;11.97;;;7.87;;
14923;SDS011;7554;43.600;1.480;2023-06-14T13:52:33;8.95;;;5.78;;
14923;SDS011;7554;43.600;1.480;2023-06-14T13:55:01;15.00;;;7.37;;
14923;SDS011;7554;43.600;1.480;2023-06-14T13:57:28;9.33;;;6.70;;
14923;SDS011;7554;43.600;1.480;2023-06-14T13:59:57;7.93;;;6.80;;
14923;SDS011;7554;43.600;1.480;2023-06-14T14:02:26;7.97;;;6.60;;
14923;SDS011;7554;43.600;1.480;2023-06-14T14:04:54;8.05;;;6.07;;
14923;SDS011;7554;43.600;1.480;2023-06-14T14:07:22;10.17;;;6.47;;
14923;SDS011;7554;43.600;1.480;2023-06-14T14:09:49;11.35;;;7.25;;
14923;SDS011;7554;43.600;1.480;2023-06-14T14:12:18;10.50;;;6.97;;
14923;SDS011;7554;43.600;1.480;2023-06-14T14:14:45;11.18;;;6.93;;
14923;SDS011;7554;43.600;1.480;2023-06-14T14:17:14;10.70;;;6.45;;
14923;SDS011;7554;43.600;1.480;2023-06-14T14:19:41;9.82;;;5.95;;
14923;SDS011;7554;43.600;1.480;2023-06-14T14:22:09;11.13;;;6.03;;
14923;SDS011;7554;43.600;1.480;2023-06-14T14:24:36;10.30;;;6.33;;
14923;SDS011;7554;43.600;1.480;2023-06-14T14:27:03;13.67;;;6.97;;
14923;SDS011;7554;43.600;1.480;2023-06-14T14:29:31;9.53;;;6.27;;
14923;SDS011;7554;43.600;1.480;2023-06-14T14:31:59;7.13;;;6.30;;
14923;SDS011;7554;43.600;1.480;2023-06-14T14:34:28;13.77;;;6.60;;
14923;SDS011;7554;43.600;1.480;2023-06-14T14:36:55;10.43;;;6.30;;
14923;SDS011;7554;43.600;1.480;2023-06-14T14:39:23;7.97;;;6.10;;
14923;SDS011;7554;43.600;1.480;2023-06-14T14:41:50;10.10;;;6.03;;
14923;SDS011;7554;43.600;1.480;2023-06-14T14:44:17;9.30;;;6.60;;
14923;SDS011;7554;43.600;1.480;2023-06-14T14:46:44;11.82;;;6.82;;
14923;SDS011;7554;43.600;1.480;2023-06-14T14:49:12;11.90;;;7.10;;
14923;SDS011;7554;43.600;1.480;2023-06-14T14:51:41;13.80;;;6.77;;
14923;SDS011;7554;43.600;1.480;2023-06-14T14:54:08;10.63;;;6.97;;
14923;SDS011;7554;43.600;1.480;2023-06-14T14:56:36;12.10;;;6.57;;